Flight Track Log - Related Links

Times and Time Zones

All times are in EDT time to prevent confusion due to time zone crossing. See the SLQ601 flight status page for this flight to view local times or setup timezone preferences in your user account.

Time Position Orientation Groundspeed Altitude Reporting Facility
EDT Latitude Longitude Course Direction KTS MPH feet Rate Location/Type
Mon 09:10:26 AM 48.8000 -54.3167 139° Southeast 170 196 7,400  Level Gander Center
Mon 09:11:26 AM 48.7667 -54.2500 127° Southeast 180 207 9,000 1,550 Climbing Gander Center
Mon 09:12:26 AM 48.7333 -54.2000 135° Southeast 200 230 10,500 1,450 Climbing Gander Center
Mon 09:13:26 AM 48.6833 -54.1333 139° Southeast 210 242 11,900 1,200 Climbing Gander Center
Mon 09:14:26 AM 48.6500 -54.0667 127° Southeast 220 253 12,900 500 Climbing Gander Center
Mon 09:15:00 AM 48.6697 -54.1984 139° Southeast  Level FlightAware Approximate
Mon 09:15:26 AM 48.6000 -54.0000 139° Southeast 250 288 12,900  Level Gander Center
Mon 09:16:26 AM 48.5500 -53.9333 139° Southeast 260 299 13,000  Climbing Gander Center
Mon 09:17:26 AM 48.4833 -53.8667 146° Southeast 270 311 12,900 -50 Descending Gander Center
Mon 09:18:26 AM 48.4333 -53.7667 127° Southeast 270 311 12,900 50 Level Gander Center
Mon 09:19:26 AM 48.3833 -53.7000 138° Southeast 270 311 13,000  Climbing Gander Center
Mon 09:20:26 AM 48.3167 -53.6333 146° Southeast 270 311 12,900  Descending Gander Center
Mon 09:21:26 AM 48.2500 -53.5500 140° Southeast 270 311 13,000 -100 Climbing Gander Center
Mon 09:22:26 AM 48.2000 -53.4833 138° Southeast 270 311 12,700 -800 Descending Gander Center
Mon 09:23:26 AM 48.1333 -53.4167 146° Southeast 280 322 11,400 -950 Descending Gander Center
Mon 09:24:26 AM 48.1000 -53.3500 127° Southeast 240 276 10,800 -800 Descending Gander Center
Mon 09:25:26 AM 48.0667 -53.2667 121° Southeast 230 265 9,800 -1,050 Descending Gander Center
Mon 09:26:26 AM 48.0000 -53.2000 146° Southeast 220 253 8,700 -1,000 Descending Gander Center
Mon 09:27:26 AM 47.9500 -53.1333 138° Southeast 240 276 7,800 -850 Descending Gander Center
Mon 09:28:26 AM 47.9000 -53.0667 138° Southeast 250 288 7,000 -750 Descending Gander Center
Mon 09:29:26 AM 47.8667 -53.0333 146° Southeast 230 265 6,300 -450 Descending Gander Center
Mon 09:30:26 AM 47.8167 -52.9667 138° Southeast 200 230 6,100 -150 Descending Gander Center
Mon 09:31:26 AM 47.7833 -52.9167 135° Southeast 170 196 6,000 -50 Descending Gander Center
Mon 09:32:26 AM 47.7500 -52.8667 135° Southeast 160 184 6,000  Level Gander Center
Mon 09:33:26 AM 47.7167 -52.8500 161° South 150 173 6,000  Level Gander Center
Mon 09:34:26 AM 47.7167 -52.9000 270° West 180 207 6,000  Level Gander Center
Mon 09:35:26 AM 47.7500 -52.9500 315° West 180 207 6,000 -50 Level Gander Center
Mon 09:36:26 AM 47.7833 -52.9167 34° Northeast 170 196 5,900 -1,450 Descending Gander Center
Mon 09:37:26 AM 47.7500 -52.8667 135° Southeast 180 207 3,100 -1,800 Descending Gander Center
Mon 09:38:26 AM 47.7000 -52.8167 146° Southeast 220 253 2,300 -600 Descending Gander Center
Mon 09:39:26 AM 47.6500 -52.7667 146° Southeast 180 207 1,900 -600 Descending Gander Center
Mon 09:40:26 AM 47.6333 -52.7167 116° Southeast 140 161 1,100 -700 Descending Gander Center
Mon 09:41:26 AM 47.6000 -52.7000 161° South 130 150 500 -300 Descending Gander Center
Mon 09:42:26 AM 47.6000 -52.7000 161° South 50 58 500  Level Gander Center

Login

Don't have an account? Register now (free) for customized features, flight alerts, and more!